Terminal Aerodrome Forecast
Issued by NWS

Home | Current Version | Previous Version | Text Only | Print | Product List | Glossary On
Versions: 1 2 3 4 5 6 7 8 9 10 11 12 13 14 15 16 17 18 19 20 21 22 23 24 25 26 27 28 29 30 31 32 33 34 35 36 37 38 39
000
FTUS45 KPSR 100500
TAFIWA
TAF
KIWA 100522Z 1006/1106 25008KT P6SM FEW120 BKN200
     FM100800 13007KT P6SM SCT100 BKN180
     FM101700 27010KT P6SM SCT100 SCT120 BKN200
     FM110300 14012KT P6SM VCSH SCT080 BKN120 BKN200
      AMD LTD TO CLD VIS AND WIND TIL 101300=

USA.gov is the U.S. government's official web portal to all federal, state and local government web resources and services.